Time;durP1;ratioP1;P1;durP2;ratioP2;P2;SDS_P1;SDS_P2;PMS_P1;PMS_P2;Temp;Humidity;BMP_temperature;BMP_pressure;BME280_temperature;BME280_humidity;BME280_pressure;Samples;Min_cycle;Max_cycle;Signal;HPM_P1;HPM_P2
2023/07/23 00:01:34;;;;;;;30.20;21.20;;;;;;;;;;5041606;28;20442;-81
2023/07/23 00:04:01;;;;;;;30.00;21.83;;;;;;;;;;5041839;28;20966;-82
2023/07/23 00:06:28;;;;;;;26.63;20.90;;;;;;;;;;5041259;28;20446;-82
2023/07/23 00:08:55;;;;;;;26.40;20.33;;;;;;;;;;5041902;28;20439;-81
2023/07/23 00:11:21;;;;;;;32.83;22.23;;;;;;;;;;5041682;28;20454;-82
2023/07/23 00:13:47;;;;;;;28.60;20.30;;;;;;;;;;5041657;28;20481;-82
2023/07/23 00:16:14;;;;;;;32.10;20.40;;;;;;;;;;5040172;28;20872;-82
2023/07/23 00:18:41;;;;;;;28.50;21.37;;;;;;;;;;5039062;28;20446;-82
2023/07/23 00:21:07;;;;;;;28.23;19.73;;;;;;;;;;5039162;28;20917;-82
2023/07/23 00:23:35;;;;;;;30.33;20.13;;;;;;;;;;5041296;28;20812;-82
2023/07/23 00:26:01;;;;;;;26.27;19.60;;;;;;;;;;5040501;28;20453;-82
2023/07/23 00:28:28;;;;;;;25.67;19.57;;;;;;;;;;5041835;28;20468;-82
2023/07/23 00:30:55;;;;;;;29.73;20.70;;;;;;;;;;5040531;28;20993;-82
2023/07/23 00:33:23;;;;;;;23.67;18.50;;;;;;;;;;5038817;28;20922;-82
2023/07/23 00:35:49;;;;;;;27.47;19.33;;;;;;;;;;5040362;28;20485;-82
2023/07/23 00:38:15;;;;;;;28.63;19.27;;;;;;;;;;5041915;28;20491;-81
2023/07/23 00:40:43;;;;;;;27.60;18.00;;;;;;;;;;5039360;28;20446;-82
2023/07/23 00:43:11;;;;;;;23.53;17.20;;;;;;;;;;5041491;28;20426;-81
2023/07/23 00:45:37;;;;;;;21.97;17.17;;;;;;;;;;5041694;28;20472;-81
2023/07/23 00:48:04;;;;;;;24.13;17.90;;;;;;;;;;5040962;28;20467;-81
2023/07/23 00:50:30;;;;;;;24.67;18.50;;;;;;;;;;5039120;28;20438;-81
2023/07/23 00:52:57;;;;;;;24.43;17.63;;;;;;;;;;5044787;28;20475;-81
2023/07/23 00:55:24;;;;;;;26.13;17.90;;;;;;;;;;5045139;28;20510;-82
2023/07/23 00:57:52;;;;;;;29.10;18.23;;;;;;;;;;5045181;28;20483;-82
2023/07/23 01:00:18;;;;;;;23.17;15.90;;;;;;;;;;5044893;28;20445;-81
2023/07/23 01:02:45;;;;;;;20.93;15.27;;;;;;;;;;5041178;28;20426;-81
2023/07/23 01:05:12;;;;;;;21.50;16.20;;;;;;;;;;5042779;28;20415;-82
2023/07/23 01:07:39;;;;;;;23.90;17.10;;;;;;;;;;5044684;28;20452;-82
2023/07/23 01:10:05;;;;;;;22.37;16.80;;;;;;;;;;5045372;28;20476;-81
2023/07/23 01:12:32;;;;;;;22.20;16.70;;;;;;;;;;5045484;28;20458;-81
2023/07/23 01:15:04;;;;;;;23.33;16.60;;;;;;;;;;5042313;28;20539;-81
2023/07/23 01:17:30;;;;;;;21.07;16.63;;;;;;;;;;5045545;28;20456;-81
2023/07/23 01:20:02;;;;;;;27.40;16.93;;;;;;;;;;5042116;28;20515;-81
2023/07/23 01:22:32;;;;;;;24.00;17.23;;;;;;;;;;5043232;28;20533;-82
2023/07/23 01:24:58;;;;;;;21.27;16.57;;;;;;;;;;5043944;28;21040;-81
2023/07/23 01:27:25;;;;;;;26.10;16.80;;;;;;;;;;5043084;28;21020;-81
2023/07/23 01:29:51;;;;;;;23.80;18.13;;;;;;;;;;5044643;28;20466;-81
2023/07/23 01:32:18;;;;;;;24.50;18.47;;;;;;;;;;5043549;28;20454;-82
2023/07/23 01:34:44;;;;;;;24.10;19.90;;;;;;;;;;5043680;28;20447;-81
2023/07/23 01:37:11;;;;;;;27.20;20.40;;;;;;;;;;5041266;28;20982;-81
2023/07/23 01:39:39;;;;;;;28.40;20.27;;;;;;;;;;5044142;28;20484;-82
2023/07/23 01:42:09;;;;;;;30.57;20.93;;;;;;;;;;5043142;28;20459;-81
2023/07/23 01:44:35;;;;;;;25.30;21.33;;;;;;;;;;5042701;28;20459;-81
2023/07/23 01:47:02;;;;;;;30.23;19.80;;;;;;;;;;5043637;28;20483;-81
2023/07/23 01:49:28;;;;;;;28.57;21.23;;;;;;;;;;5041811;28;20459;-82
2023/07/23 01:51:54;;;;;;;30.87;21.90;;;;;;;;;;5043679;28;20844;-81
2023/07/23 01:54:21;;;;;;;29.10;21.20;;;;;;;;;;5042392;28;21012;-82
2023/07/23 01:56:49;;;;;;;32.30;20.80;;;;;;;;;;5042497;28;20456;-81
2023/07/23 01:59:15;;;;;;;25.80;20.30;;;;;;;;;;5043064;28;20491;-82
2023/07/23 02:01:41;;;;;;;28.13;20.27;;;;;;;;;;5041276;28;20483;-81
2023/07/23 02:04:08;;;;;;;26.43;19.27;;;;;;;;;;5041007;28;20481;-81
2023/07/23 02:06:36;;;;;;;30.70;21.00;;;;;;;;;;5042101;28;21013;-81
2023/07/23 02:09:03;;;;;;;33.77;20.70;;;;;;;;;;5040594;28;20526;-81
2023/07/23 02:11:29;;;;;;;31.47;20.40;;;;;;;;;;5043439;28;20479;-81
2023/07/23 02:13:57;;;;;;;27.97;19.53;;;;;;;;;;5042863;28;20481;-81
2023/07/23 02:16:23;;;;;;;27.00;21.27;;;;;;;;;;5042595;28;20476;-81
2023/07/23 02:18:50;;;;;;;31.47;21.40;;;;;;;;;;5043582;28;20498;-81
2023/07/23 02:21:16;;;;;;;28.70;19.80;;;;;;;;;;5043424;28;21032;-82
2023/07/23 02:23:43;;;;;;;25.90;20.40;;;;;;;;;;5040977;28;20473;-81
2023/07/23 02:26:10;;;;;;;29.00;21.37;;;;;;;;;;5041933;28;20455;-81
2023/07/23 02:28:40;;;;;;;28.03;18.77;;;;;;;;;;5041710;28;20475;-81
2023/07/23 02:31:08;;;;;;;24.57;19.50;;;;;;;;;;5041095;28;20454;-81
2023/07/23 02:33:34;;;;;;;31.03;19.63;;;;;;;;;;5040832;28;20486;-81
2023/07/23 02:36:01;;;;;;;23.77;18.60;;;;;;;;;;5042418;28;20465;-81
2023/07/23 02:38:27;;;;;;;25.90;18.10;;;;;;;;;;5043952;28;20538;-81
2023/07/23 02:40:55;;;;;;;23.63;18.33;;;;;;;;;;5041334;28;20450;-81
2023/07/23 02:43:22;;;;;;;26.97;18.20;;;;;;;;;;5041185;28;20468;-82
2023/07/23 02:45:49;;;;;;;21.63;18.67;;;;;;;;;;5041588;28;20438;-81
2023/07/23 02:48:17;;;;;;;29.93;18.30;;;;;;;;;;5042846;28;20589;-81
2023/07/23 02:50:45;;;;;;;21.33;17.07;;;;;;;;;;5041002;28;20431;-82
2023/07/23 02:53:11;;;;;;;23.33;17.77;;;;;;;;;;5041510;28;20484;-81
2023/07/23 02:55:37;;;;;;;25.17;18.90;;;;;;;;;;5042889;28;20971;-81
2023/07/23 02:58:04;;;;;;;27.03;18.10;;;;;;;;;;5041951;28;20518;-81
2023/07/23 03:00:30;;;;;;;26.67;16.77;;;;;;;;;;5041831;28;20978;-81
2023/07/23 03:02:57;;;;;;;21.27;16.40;;;;;;;;;;5041096;28;20439;-81
2023/07/23 03:05:25;;;;;;;27.40;17.37;;;;;;;;;;5041394;28;20530;-82
2023/07/23 03:07:52;;;;;;;23.60;16.13;;;;;;;;;;5042227;28;20442;-81
2023/07/23 03:10:19;;;;;;;25.53;17.20;;;;;;;;;;5043033;28;20436;-82
2023/07/23 03:12:45;;;;;;;23.10;17.60;;;;;;;;;;5043017;28;20431;-82
2023/07/23 03:15:13;;;;;;;25.23;16.17;;;;;;;;;;5040894;28;20415;-82
2023/07/23 03:17:39;;;;;;;21.03;17.40;;;;;;;;;;5040852;28;20461;-82
2023/07/23 03:20:08;;;;;;;25.03;16.50;;;;;;;;;;5041470;28;20467;-82
2023/07/23 03:22:36;;;;;;;23.80;17.03;;;;;;;;;;5042555;28;20458;-81
2023/07/23 03:25:02;;;;;;;23.00;16.43;;;;;;;;;;5042033;28;21087;-81
2023/07/23 03:27:29;;;;;;;23.03;15.07;;;;;;;;;;5041819;28;20488;-81
2023/07/23 03:29:56;;;;;;;20.73;13.73;;;;;;;;;;5041861;28;20999;-81
2023/07/23 03:32:22;;;;;;;29.67;16.10;;;;;;;;;;5040647;28;20539;-82
2023/07/23 03:34:48;;;;;;;25.43;14.80;;;;;;;;;;5039382;28;20465;-81
2023/07/23 03:37:15;;;;;;;21.33;14.50;;;;;;;;;;5040039;28;20476;-81
2023/07/23 03:39:42;;;;;;;22.80;14.37;;;;;;;;;;5041889;28;20447;-81
2023/07/23 03:42:09;;;;;;;23.37;14.50;;;;;;;;;;5041177;28;20468;-82
2023/07/23 03:44:37;;;;;;;20.53;15.73;;;;;;;;;;5040962;28;20928;-81
2023/07/23 03:47:04;;;;;;;21.07;13.17;;;;;;;;;;5042369;28;20446;-81
2023/07/23 03:49:31;;;;;;;16.50;11.93;;;;;;;;;;5040292;28;20459;-82
2023/07/23 03:52:00;;;;;;;20.30;12.93;;;;;;;;;;5040758;28;20570;-81
2023/07/23 03:54:27;;;;;;;19.27;12.70;;;;;;;;;;5040565;28;20483;-81
2023/07/23 03:56:56;;;;;;;21.20;12.83;;;;;;;;;;5040229;28;20468;-82
2023/07/23 03:59:22;;;;;;;18.23;13.87;;;;;;;;;;5041425;28;20491;-82
2023/07/23 04:01:50;;;;;;;21.43;13.03;;;;;;;;;;5041533;28;20454;-82
2023/07/23 04:04:16;;;;;;;18.50;12.27;;;;;;;;;;5041814;28;20933;-82
2023/07/23 04:06:42;;;;;;;17.70;12.17;;;;;;;;;;5040763;28;20482;-82
2023/07/23 04:09:09;;;;;;;15.87;12.70;;;;;;;;;;5041733;28;20473;-82
2023/07/23 04:11:36;;;;;;;15.57;12.73;;;;;;;;;;5041098;28;20466;-82
2023/07/23 04:14:03;;;;;;;18.83;13.20;;;;;;;;;;5040373;28;20486;-82
2023/07/23 04:16:30;;;;;;;18.63;10.97;;;;;;;;;;5040779;28;20487;-82
2023/07/23 04:18:56;;;;;;;20.63;13.33;;;;;;;;;;5041386;28;20464;-82
2023/07/23 04:21:23;;;;;;;18.30;12.20;;;;;;;;;;5038754;28;20476;-82
2023/07/23 04:23:50;;;;;;;22.17;12.80;;;;;;;;;;5039520;28;20452;-82
2023/07/23 04:26:17;;;;;;;16.33;12.20;;;;;;;;;;5040976;28;20456;-81
2023/07/23 04:28:43;;;;;;;16.70;12.83;;;;;;;;;;5040991;28;20458;-82
2023/07/23 04:31:12;;;;;;;18.83;12.33;;;;;;;;;;5040903;28;20462;-82
2023/07/23 04:33:38;;;;;;;18.43;13.10;;;;;;;;;;5040077;28;20834;-82
2023/07/23 04:36:05;;;;;;;21.00;13.73;;;;;;;;;;5041696;28;21004;-81
2023/07/23 04:38:31;;;;;;;15.93;13.20;;;;;;;;;;5039709;28;20455;-82
2023/07/23 04:40:57;;;;;;;15.77;12.43;;;;;;;;;;5038311;28;20861;-82
2023/07/23 04:43:24;;;;;;;19.77;13.60;;;;;;;;;;5039201;28;20442;-82
2023/07/23 04:45:51;;;;;;;16.90;14.20;;;;;;;;;;5039829;28;21056;-82
2023/07/23 04:48:18;;;;;;;21.07;13.83;;;;;;;;;;5041098;28;20454;-82
2023/07/23 04:50:45;;;;;;;16.73;13.00;;;;;;;;;;5040233;28;20468;-82
2023/07/23 04:53:14;;;;;;;21.37;14.37;;;;;;;;;;5040603;28;20954;-81
2023/07/23 04:55:40;;;;;;;18.87;14.10;;;;;;;;;;5039906;28;20495;-82
2023/07/23 04:58:07;;;;;;;19.57;13.30;;;;;;;;;;5038042;28;20484;-82
2023/07/23 05:00:33;;;;;;;21.30;13.43;;;;;;;;;;5040003;28;20474;-82
2023/07/23 05:02:59;;;;;;;21.80;14.10;;;;;;;;;;5039718;28;20456;-81
2023/07/23 05:05:27;;;;;;;22.37;12.23;;;;;;;;;;5040092;28;20457;-82
2023/07/23 05:07:54;;;;;;;21.20;14.07;;;;;;;;;;5039347;28;20450;-82
2023/07/23 05:10:21;;;;;;;22.23;14.00;;;;;;;;;;5040510;28;20464;-82
2023/07/23 05:12:47;;;;;;;18.63;13.53;;;;;;;;;;5039588;28;20471;-82
2023/07/23 05:15:14;;;;;;;18.30;12.30;;;;;;;;;;5035974;28;20486;-82
2023/07/23 05:17:41;;;;;;;18.20;13.53;;;;;;;;;;5040507;28;20455;-81
2023/07/23 05:20:09;;;;;;;23.80;14.37;;;;;;;;;;5041346;28;21396;-82
2023/07/23 05:22:37;;;;;;;21.63;14.00;;;;;;;;;;5038853;28;20449;-81
2023/07/23 05:25:04;;;;;;;18.13;13.57;;;;;;;;;;5039824;28;20474;-82
2023/07/23 05:27:30;;;;;;;19.90;13.57;;;;;;;;;;5038162;28;20472;-81
2023/07/23 05:29:57;;;;;;;20.60;13.07;;;;;;;;;;5039381;28;20446;-81
2023/07/23 05:32:25;;;;;;;19.13;13.83;;;;;;;;;;5040152;28;20461;-82
2023/07/23 05:34:53;;;;;;;19.20;13.23;;;;;;;;;;5041335;28;20489;-82
2023/07/23 05:37:19;;;;;;;20.40;13.60;;;;;;;;;;5039395;28;20523;-81
2023/07/23 05:39:47;;;;;;;19.30;13.00;;;;;;;;;;5045330;28;20470;-82
2023/07/23 05:42:14;;;;;;;16.27;13.50;;;;;;;;;;5041871;28;20454;-82
2023/07/23 05:44:40;;;;;;;17.80;12.17;;;;;;;;;;5045776;28;20447;-82
2023/07/23 05:47:07;;;;;;;19.63;13.60;;;;;;;;;;5045779;28;20450;-82
2023/07/23 05:49:33;;;;;;;14.63;13.13;;;;;;;;;;5044843;28;20462;-81
2023/07/23 05:52:00;;;;;;;18.87;14.30;;;;;;;;;;5043816;28;20990;-82
2023/07/23 05:54:27;;;;;;;18.63;12.73;;;;;;;;;;5044058;28;20497;-82
2023/07/23 05:56:55;;;;;;;19.33;13.20;;;;;;;;;;5044889;28;20450;-81
2023/07/23 05:59:21;;;;;;;29.10;13.47;;;;;;;;;;5040889;28;20462;-82
2023/07/23 06:01:48;;;;;;;15.50;12.30;;;;;;;;;;5044960;28;20443;-82
2023/07/23 06:04:14;;;;;;;23.93;14.57;;;;;;;;;;5044673;28;20460;-82
2023/07/23 06:06:41;;;;;;;21.03;13.10;;;;;;;;;;5044469;28;20471;-82
2023/07/23 06:09:08;;;;;;;17.90;13.23;;;;;;;;;;5044512;28;20480;-81
2023/07/23 06:11:34;;;;;;;20.37;13.37;;;;;;;;;;5042432;28;20990;-82
2023/07/23 06:14:02;;;;;;;15.27;12.60;;;;;;;;;;5043535;28;20458;-82
2023/07/23 06:16:28;;;;;;;17.43;12.27;;;;;;;;;;5041690;28;20582;-82
2023/07/23 06:18:55;;;;;;;19.43;12.03;;;;;;;;;;5044954;28;20455;-81
2023/07/23 06:21:21;;;;;;;20.03;13.53;;;;;;;;;;5043874;28;20470;-81
2023/07/23 06:23:47;;;;;;;18.83;13.37;;;;;;;;;;5043273;28;20432;-81
2023/07/23 06:26:14;;;;;;;19.67;12.13;;;;;;;;;;5043541;28;20450;-81
2023/07/23 06:28:41;;;;;;;19.73;13.17;;;;;;;;;;5036453;28;20475;-81
2023/07/23 06:31:08;;;;;;;20.20;11.37;;;;;;;;;;5043826;28;20469;-82
2023/07/23 06:33:35;;;;;;;17.67;12.10;;;;;;;;;;5044207;28;20438;-81
2023/07/23 06:36:02;;;;;;;14.77;11.47;;;;;;;;;;5044555;28;20457;-82
2023/07/23 06:38:28;;;;;;;14.67;11.30;;;;;;;;;;5042079;28;20453;-81
2023/07/23 06:40:55;;;;;;;27.07;11.83;;;;;;;;;;5044236;28;20480;-82
2023/07/23 06:43:22;;;;;;;17.97;12.30;;;;;;;;;;5043745;28;20468;-82
2023/07/23 06:45:50;;;;;;;13.70;11.03;;;;;;;;;;5042020;28;20912;-81
2023/07/23 06:48:19;;;;;;;20.43;12.27;;;;;;;;;;5044601;28;20481;-81
2023/07/23 06:50:46;;;;;;;16.20;11.97;;;;;;;;;;5042200;28;20487;-81
2023/07/23 06:53:12;;;;;;;16.90;11.43;;;;;;;;;;5041797;28;20481;-82
2023/07/23 06:55:53;;;;;;;20.63;11.80;;;;;;;;;;5040377;28;20510;-81
2023/07/23 06:58:20;;;;;;;15.07;10.40;;;;;;;;;;5041921;28;20470;-81
2023/07/23 07:00:46;;;;;;;15.70;10.50;;;;;;;;;;5044360;28;20477;-81
2023/07/23 07:03:12;;;;;;;15.30;11.83;;;;;;;;;;5042955;28;20475;-81
2023/07/23 07:05:40;;;;;;;17.40;11.00;;;;;;;;;;5043085;28;20842;-81
2023/07/23 07:08:07;;;;;;;17.07;12.83;;;;;;;;;;5043894;28;20446;-81
2023/07/23 07:10:34;;;;;;;17.83;11.40;;;;;;;;;;5043633;28;20475;-81
2023/07/23 07:13:00;;;;;;;16.73;11.70;;;;;;;;;;5043785;28;20469;-81
2023/07/23 07:15:27;;;;;;;16.07;11.20;;;;;;;;;;5041418;28;20488;-81
2023/07/23 07:17:53;;;;;;;15.23;10.83;;;;;;;;;;5042418;28;20487;-81
2023/07/23 07:20:19;;;;;;;17.87;10.80;;;;;;;;;;5042380;28;20472;-81
2023/07/23 07:22:47;;;;;;;15.80;11.17;;;;;;;;;;5044003;28;20473;-81
2023/07/23 07:25:14;;;;;;;17.60;12.03;;;;;;;;;;5040063;28;20457;-81
2023/07/23 07:27:40;;;;;;;15.50;11.50;;;;;;;;;;5042766;28;20872;-81
2023/07/23 07:30:07;;;;;;;13.67;10.37;;;;;;;;;;5042264;28;20470;-81
2023/07/23 07:32:33;;;;;;;16.27;10.93;;;;;;;;;;5043220;28;20488;-82
2023/07/23 07:34:59;;;;;;;13.77;11.47;;;;;;;;;;5041785;28;20485;-82
2023/07/23 07:37:27;;;;;;;17.33;10.97;;;;;;;;;;5041965;28;20484;-82
2023/07/23 07:39:54;;;;;;;13.63;10.47;;;;;;;;;;5041132;28;20562;-81
2023/07/23 07:42:21;;;;;;;13.23;10.70;;;;;;;;;;5042362;28;20851;-82
2023/07/23 07:44:47;;;;;;;20.10;11.27;;;;;;;;;;5042365;28;20518;-81
2023/07/23 07:47:15;;;;;;;13.67;10.57;;;;;;;;;;5042328;28;20479;-82
2023/07/23 07:49:41;;;;;;;17.73;11.37;;;;;;;;;;5040960;28;20479;-82
2023/07/23 07:52:08;;;;;;;13.40;10.73;;;;;;;;;;5041921;28;20480;-81
2023/07/23 07:54:36;;;;;;;16.33;9.47;;;;;;;;;;5042230;28;21000;-82
2023/07/23 07:57:05;;;;;;;13.97;10.77;;;;;;;;;;5040237;28;20475;-82
2023/07/23 07:59:31;;;;;;;14.83;11.50;;;;;;;;;;5041538;28;21019;-81
2023/07/23 08:01:57;;;;;;;17.60;9.60;;;;;;;;;;5040426;28;20881;-81
2023/07/23 08:04:24;;;;;;;15.07;11.20;;;;;;;;;;5042666;28;20465;-81
2023/07/23 08:06:51;;;;;;;19.37;12.70;;;;;;;;;;5041967;28;20476;-82
2023/07/23 08:09:18;;;;;;;14.83;11.03;;;;;;;;;;5041935;28;20481;-81
2023/07/23 08:11:45;;;;;;;13.63;10.60;;;;;;;;;;5040022;28;20481;-82
2023/07/23 08:14:14;;;;;;;15.57;10.50;;;;;;;;;;5041329;28;20463;-82
2023/07/23 08:16:43;;;;;;;12.73;11.40;;;;;;;;;;5041314;28;20471;-82
2023/07/23 08:19:09;;;;;;;16.37;10.57;;;;;;;;;;5041079;28;20506;-81
2023/07/23 08:21:36;;;;;;;13.73;10.20;;;;;;;;;;5040770;28;20503;-82
2023/07/23 08:24:02;;;;;;;14.63;10.53;;;;;;;;;;5041216;28;20976;-82
2023/07/23 08:26:30;;;;;;;15.80;9.83;;;;;;;;;;5040428;28;20467;-81
2023/07/23 08:28:59;;;;;;;14.17;10.80;;;;;;;;;;5042145;28;20487;-81
2023/07/23 08:31:27;;;;;;;14.40;11.20;;;;;;;;;;5040204;28;20476;-82
2023/07/23 08:33:56;;;;;;;13.17;9.87;;;;;;;;;;5040611;28;20460;-82
2023/07/23 08:36:23;;;;;;;13.30;9.90;;;;;;;;;;5041305;28;20480;-82
2023/07/23 08:38:49;;;;;;;12.80;10.60;;;;;;;;;;5040966;28;20479;-81
2023/07/23 08:41:22;;;;;;;20.03;11.63;;;;;;;;;;5040848;28;20468;-81
2023/07/23 08:44:09;;;;;;;15.03;10.57;;;;;;;;;;5041899;28;20471;-81
2023/07/23 08:46:44;;;;;;;14.73;11.40;;;;;;;;;;5039247;28;20870;-81
2023/07/23 08:49:11;;;;;;;14.63;10.50;;;;;;;;;;5040883;28;20483;-82
2023/07/23 08:51:41;;;;;;;11.00;9.63;;;;;;;;;;5041158;28;20514;-81
2023/07/23 08:54:08;;;;;;;17.30;10.60;;;;;;;;;;5040867;28;20457;-81
2023/07/23 08:56:35;;;;;;;12.50;10.20;;;;;;;;;;5040533;28;20528;-81
2023/07/23 08:59:02;;;;;;;18.40;11.17;;;;;;;;;;5040566;28;20487;-81
2023/07/23 09:01:29;;;;;;;13.27;11.07;;;;;;;;;;5038847;28;20507;-81
2023/07/23 09:03:57;;;;;;;17.07;11.17;;;;;;;;;;5041545;28;20551;-82
2023/07/23 09:06:23;;;;;;;17.17;11.10;;;;;;;;;;5041034;28;20475;-81
2023/07/23 09:08:51;;;;;;;15.17;11.87;;;;;;;;;;5040926;28;20844;-81
2023/07/23 09:11:18;;;;;;;14.30;10.33;;;;;;;;;;5036008;28;20502;-82
2023/07/23 09:13:44;;;;;;;13.23;10.53;;;;;;;;;;5042216;28;20464;-81
2023/07/23 09:16:10;;;;;;;14.67;11.40;;;;;;;;;;5042818;28;20477;-81
2023/07/23 09:18:40;;;;;;;13.33;11.57;;;;;;;;;;5045617;28;20474;-81
2023/07/23 09:21:09;;;;;;;15.93;11.37;;;;;;;;;;5044055;28;21094;-82
2023/07/23 09:23:35;;;;;;;15.47;11.27;;;;;;;;;;5044291;28;20539;-81
2023/07/23 09:26:02;;;;;;;13.70;10.40;;;;;;;;;;5045393;28;20483;-81
2023/07/23 09:28:28;;;;;;;14.30;11.13;;;;;;;;;;5043547;28;20476;-81
2023/07/23 09:30:55;;;;;;;17.27;11.47;;;;;;;;;;5043678;28;20927;-81
2023/07/23 09:33:21;;;;;;;16.07;11.93;;;;;;;;;;5045697;28;20459;-81
2023/07/23 09:35:47;;;;;;;18.60;11.23;;;;;;;;;;5044080;28;20483;-81
2023/07/23 09:38:15;;;;;;;16.70;12.83;;;;;;;;;;5044001;28;21001;-82
2023/07/23 09:40:42;;;;;;;23.90;12.50;;;;;;;;;;5044212;28;20464;-81
2023/07/23 09:43:09;;;;;;;18.80;13.07;;;;;;;;;;5044262;28;20456;-81
2023/07/23 09:45:36;;;;;;;12.87;10.90;;;;;;;;;;5042321;28;20982;-81
2023/07/23 09:48:03;;;;;;;16.07;12.30;;;;;;;;;;5044059;28;21019;-82
2023/07/23 09:50:30;;;;;;;16.47;11.27;;;;;;;;;;5043547;28;20953;-81
2023/07/23 09:52:56;;;;;;;14.30;10.43;;;;;;;;;;5043119;28;20452;-81
2023/07/23 09:55:24;;;;;;;16.00;11.13;;;;;;;;;;5042972;28;20479;-81
2023/07/23 09:57:51;;;;;;;14.00;10.17;;;;;;;;;;5043019;28;21013;-81
2023/07/23 10:00:18;;;;;;;14.17;10.63;;;;;;;;;;5042969;28;20460;-82
2023/07/23 10:02:48;;;;;;;16.00;10.50;;;;;;;;;;5043015;28;20547;-81
2023/07/23 10:05:15;;;;;;;13.57;9.70;;;;;;;;;;5043449;28;20466;-82
2023/07/23 10:07:42;;;;;;;15.80;9.70;;;;;;;;;;5043550;28;20989;-81
2023/07/23 10:10:09;;;;;;;13.17;9.57;;;;;;;;;;5043183;28;20510;-81
2023/07/23 10:12:37;;;;;;;16.47;10.97;;;;;;;;;;5042945;28;20476;-81
2023/07/23 10:15:04;;;;;;;14.13;10.23;;;;;;;;;;5041850;28;20483;-81
2023/07/23 10:17:31;;;;;;;15.50;11.53;;;;;;;;;;5042599;28;21024;-81
2023/07/23 10:19:58;;;;;;;14.00;11.57;;;;;;;;;;5042889;28;20459;-82
2023/07/23 10:22:24;;;;;;;12.83;10.03;;;;;;;;;;5041362;28;20840;-81
2023/07/23 10:24:52;;;;;;;14.10;9.70;;;;;;;;;;5042253;28;21000;-81
2023/07/23 10:27:18;;;;;;;13.50;10.50;;;;;;;;;;5042024;28;20484;-82
2023/07/23 10:30:00;;;;;;;13.70;11.33;;;;;;;;;;5044827;28;20837;-81
2023/07/23 10:32:27;;;;;;;15.00;10.83;;;;;;;;;;5041309;28;20480;-82
2023/07/23 10:34:54;;;;;;;14.43;10.30;;;;;;;;;;5043544;28;20457;-82
2023/07/23 10:37:21;;;;;;;15.83;11.23;;;;;;;;;;5042275;28;20476;-81
2023/07/23 10:39:48;;;;;;;15.43;10.20;;;;;;;;;;5043433;28;20465;-81
2023/07/23 10:42:42;;;;;;;13.10;9.80;;;;;;;;;;5042532;28;20472;-81
2023/07/23 10:45:16;;;;;;;13.87;10.20;;;;;;;;;;5031783;28;20464;-81
2023/07/23 10:47:49;;;;;;;16.40;10.80;;;;;;;;;;5043866;28;20446;-81
2023/07/23 10:50:17;;;;;;;15.60;10.50;;;;;;;;;;5041684;28;20953;-82
2023/07/23 10:52:45;;;;;;;15.63;10.77;;;;;;;;;;5043205;28;20468;-81
2023/07/23 10:55:11;;;;;;;13.70;9.60;;;;;;;;;;5041773;28;20956;-81
2023/07/23 10:57:39;;;;;;;14.83;10.70;;;;;;;;;;5042233;28;20456;-81
2023/07/23 11:00:18;;;;;;;12.43;8.53;;;;;;;;;;5041715;28;20514;-81
2023/07/23 11:02:48;;;;;;;14.07;7.83;;;;;;;;;;5042496;28;20472;-81
2023/07/23 11:05:15;;;;;;;12.37;8.77;;;;;;;;;;5041058;28;20455;-82
2023/07/23 11:07:41;;;;;;;12.40;7.93;;;;;;;;;;5042683;28;20538;-81
2023/07/23 11:10:20;;;;;;;11.70;8.70;;;;;;;;;;5043981;28;20584;-81
2023/07/23 11:12:47;;;;;;;11.93;8.40;;;;;;;;;;5042420;28;20472;-81
2023/07/23 11:15:14;;;;;;;11.60;7.90;;;;;;;;;;5041089;28;20507;-81
2023/07/23 11:17:41;;;;;;;12.77;9.67;;;;;;;;;;5042252;28;20485;-81
2023/07/23 11:20:09;;;;;;;11.80;9.60;;;;;;;;;;5042966;28;20997;-81
2023/07/23 11:22:41;;;;;;;12.97;9.00;;;;;;;;;;5058411;28;20468;-81
2023/07/23 11:25:14;;;;;;;10.10;8.33;;;;;;;;;;5041044;28;20494;-82
2023/07/23 11:27:41;;;;;;;12.73;9.40;;;;;;;;;;5040797;28;20483;-81
2023/07/23 11:30:08;;;;;;;14.90;11.70;;;;;;;;;;5040393;28;20467;-82
2023/07/23 11:32:34;;;;;;;12.33;10.37;;;;;;;;;;5039381;28;20494;-82
2023/07/23 11:35:01;;;;;;;17.70;12.10;;;;;;;;;;5040038;28;20810;-81
2023/07/23 11:37:29;;;;;;;11.60;10.40;;;;;;;;;;5041216;28;21122;-81
2023/07/23 11:39:55;;;;;;;17.03;10.57;;;;;;;;;;5043075;28;20531;-81
2023/07/23 11:42:22;;;;;;;13.97;10.57;;;;;;;;;;5042131;28;20475;-82
2023/07/23 11:45:00;;;;;;;13.90;10.60;;;;;;;;;;5043197;28;20439;-81
2023/07/23 11:47:27;;;;;;;14.90;10.40;;;;;;;;;;5041777;28;20531;-81
2023/07/23 11:49:53;;;;;;;11.47;9.43;;;;;;;;;;5041337;28;20951;-81
2023/07/23 11:52:22;;;;;;;13.13;9.27;;;;;;;;;;5041859;28;20938;-82
2023/07/23 11:54:50;;;;;;;11.07;9.10;;;;;;;;;;5023695;28;20945;-82
2023/07/23 11:57:17;;;;;;;10.00;8.30;;;;;;;;;;5039008;28;20475;-82
2023/07/23 11:59:43;;;;;;;10.80;7.90;;;;;;;;;;5039970;28;20494;-81
2023/07/23 12:02:12;;;;;;;11.10;8.00;;;;;;;;;;5039095;28;20474;-81
2023/07/23 12:04:38;;;;;;;11.00;7.57;;;;;;;;;;5042444;28;20451;-81
2023/07/23 12:07:06;;;;;;;7.93;6.83;;;;;;;;;;5040806;28;20468;-81
2023/07/23 12:09:34;;;;;;;8.60;6.20;;;;;;;;;;5041537;28;20477;-82
2023/07/23 12:12:02;;;;;;;8.50;6.80;;;;;;;;;;5041131;28;20473;-82
2023/07/23 12:14:29;;;;;;;9.87;7.80;;;;;;;;;;5039853;28;20542;-81
2023/07/23 12:16:56;;;;;;;8.30;6.47;;;;;;;;;;5038250;28;20490;-81
2023/07/23 12:19:23;;;;;;;8.37;7.67;;;;;;;;;;5038620;28;20490;-82
2023/07/23 12:21:52;;;;;;;8.33;6.70;;;;;;;;;;5038623;28;20488;-82
2023/07/23 12:24:19;;;;;;;10.50;7.47;;;;;;;;;;5038892;28;20996;-82
2023/07/23 12:26:46;;;;;;;8.47;6.80;;;;;;;;;;5036220;28;20846;-82
2023/07/23 12:29:14;;;;;;;6.33;5.70;;;;;;;;;;5038124;28;20494;-82
2023/07/23 12:31:41;;;;;;;7.20;5.73;;;;;;;;;;5036281;28;20492;-82
2023/07/23 12:34:08;;;;;;;10.93;7.30;;;;;;;;;;5040329;28;20521;-82
2023/07/23 12:36:35;;;;;;;12.23;7.20;;;;;;;;;;5041042;28;20475;-82
2023/07/23 12:39:01;;;;;;;8.60;6.67;;;;;;;;;;5041592;28;20525;-82
2023/07/23 12:41:28;;;;;;;8.93;6.73;;;;;;;;;;5041306;28;20486;-82
2023/07/23 12:43:54;;;;;;;9.07;7.30;;;;;;;;;;5040634;28;20467;-81
2023/07/23 12:46:22;;;;;;;9.70;7.77;;;;;;;;;;5036536;28;20473;-82
2023/07/23 12:48:49;;;;;;;9.90;7.60;;;;;;;;;;5038652;28;20477;-82
2023/07/23 12:51:15;;;;;;;10.93;8.30;;;;;;;;;;5039262;28;20559;-82
2023/07/23 12:53:42;;;;;;;12.20;9.47;;;;;;;;;;5039931;28;20445;-82
2023/07/23 12:56:08;;;;;;;8.47;7.73;;;;;;;;;;5040458;28;20482;-82
2023/07/23 12:58:34;;;;;;;11.07;9.20;;;;;;;;;;5040840;28;20483;-82
2023/07/23 13:01:01;;;;;;;9.70;8.80;;;;;;;;;;5042717;28;20473;-82
2023/07/23 13:03:33;;;;;;;9.80;8.63;;;;;;;;;;5039340;28;20460;-83
2023/07/23 13:05:59;;;;;;;12.33;10.47;;;;;;;;;;5042624;28;20559;-83
2023/07/23 13:08:25;;;;;;;11.00;9.90;;;;;;;;;;5040781;28;20506;-81
2023/07/23 13:10:52;;;;;;;13.70;9.07;;;;;;;;;;5039653;28;20844;-82
2023/07/23 13:13:20;;;;;;;11.10;10.00;;;;;;;;;;5040835;28;20480;-82
2023/07/23 13:15:46;;;;;;;11.40;10.13;;;;;;;;;;5039740;28;20492;-82
2023/07/23 13:18:12;;;;;;;13.53;10.40;;;;;;;;;;5039125;28;20487;-83
2023/07/23 13:20:42;;;;;;;8.80;7.90;;;;;;;;;;5041307;28;20471;-83
2023/07/23 13:23:08;;;;;;;18.43;10.40;;;;;;;;;;5040987;28;20452;-82
2023/07/23 13:25:34;;;;;;;11.20;9.70;;;;;;;;;;5040471;28;20468;-82
2023/07/23 13:28:01;;;;;;;12.30;9.70;;;;;;;;;;5040845;28;20479;-82
2023/07/23 13:30:27;;;;;;;9.63;8.73;;;;;;;;;;5041579;28;20969;-82
2023/07/23 13:32:53;;;;;;;9.40;8.50;;;;;;;;;;5043957;28;20459;-82
2023/07/23 13:35:20;;;;;;;8.80;8.00;;;;;;;;;;5039074;28;20461;-82
2023/07/23 13:37:47;;;;;;;8.40;7.60;;;;;;;;;;5039818;28;20489;-82
2023/07/23 13:40:14;;;;;;;10.03;9.03;;;;;;;;;;5039206;28;20445;-83
2023/07/23 13:42:40;;;;;;;8.60;7.80;;;;;;;;;;5040873;28;20445;-82
2023/07/23 13:45:07;;;;;;;9.33;8.40;;;;;;;;;;5039749;28;20448;-82
2023/07/23 13:47:33;;;;;;;8.27;7.57;;;;;;;;;;5040013;28;20464;-82
2023/07/23 13:50:00;;;;;;;9.10;8.20;;;;;;;;;;5040750;28;20502;-82
2023/07/23 13:52:26;;;;;;;9.40;8.40;;;;;;;;;;5041203;28;20519;-82
2023/07/23 13:54:54;;;;;;;10.00;8.17;;;;;;;;;;5040178;28;20447;-83
2023/07/23 13:57:20;;;;;;;9.27;8.40;;;;;;;;;;5038844;28;20481;-82
2023/07/23 13:59:47;;;;;;;11.93;8.83;;;;;;;;;;5042344;28;20471;-82
2023/07/23 14:02:13;;;;;;;9.70;8.70;;;;;;;;;;5043982;28;21001;-82
2023/07/23 14:04:39;;;;;;;9.10;8.27;;;;;;;;;;5043127;28;20464;-82
2023/07/23 14:07:06;;;;;;;9.50;8.70;;;;;;;;;;5042982;28;20472;-82
2023/07/23 14:09:32;;;;;;;8.37;7.57;;;;;;;;;;5041916;28;20479;-82
2023/07/23 14:12:00;;;;;;;9.67;7.90;;;;;;;;;;5044693;28;20486;-82
2023/07/23 14:14:26;;;;;;;8.43;7.67;;;;;;;;;;5038857;28;20460;-82
2023/07/23 14:16:53;;;;;;;6.90;6.20;;;;;;;;;;5039752;28;21194;-83
2023/07/23 14:19:19;;;;;;;8.70;7.90;;;;;;;;;;5043411;28;20491;-83
2023/07/23 14:21:47;;;;;;;6.93;6.33;;;;;;;;;;5040147;28;20491;-83